sensor_id;sensor_type;location;lat;lon;timestamp;temperature;humidity
1405;DHT22;697;51.114;6.542;2022-07-29T00:00:50;23.10;46.50
1405;DHT22;697;51.114;6.542;2022-07-29T00:03:17;23.10;46.50
1405;DHT22;697;51.114;6.542;2022-07-29T00:05:45;23.10;46.30
1405;DHT22;697;51.114;6.542;2022-07-29T00:08:11;23.00;46.30
1405;DHT22;697;51.114;6.542;2022-07-29T00:10:38;23.00;46.40
1405;DHT22;697;51.114;6.542;2022-07-29T00:13:05;23.00;46.60
1405;DHT22;697;51.114;6.542;2022-07-29T00:15:32;23.00;46.80
1405;DHT22;697;51.114;6.542;2022-07-29T00:17:59;23.00;46.90
1405;DHT22;697;51.114;6.542;2022-07-29T00:20:26;23.00;47.00
1405;DHT22;697;51.114;6.542;2022-07-29T00:22:54;23.00;47.00
1405;DHT22;697;51.114;6.542;2022-07-29T00:25:21;22.90;47.00
1405;DHT22;697;51.114;6.542;2022-07-29T00:27:48;22.90;47.10
1405;DHT22;697;51.114;6.542;2022-07-29T00:30:14;22.90;47.20
1405;DHT22;697;51.114;6.542;2022-07-29T00:32:41;22.80;47.20
1405;DHT22;697;51.114;6.542;2022-07-29T00:35:08;22.80;47.20
1405;DHT22;697;51.114;6.542;2022-07-29T00:37:54;22.80;47.20
1405;DHT22;697;51.114;6.542;2022-07-29T00:40:21;22.80;47.20
1405;DHT22;697;51.114;6.542;2022-07-29T00:42:50;22.80;47.50
1405;DHT22;697;51.114;6.542;2022-07-29T00:45:18;22.70;47.80
1405;DHT22;697;51.114;6.542;2022-07-29T00:47:45;22.80;48.00
1405;DHT22;697;51.114;6.542;2022-07-29T00:50:12;22.70;47.80
1405;DHT22;697;51.114;6.542;2022-07-29T00:52:40;22.70;47.70
1405;DHT22;697;51.114;6.542;2022-07-29T00:55:10;22.60;47.70
1405;DHT22;697;51.114;6.542;2022-07-29T00:57:38;22.60;48.20
1405;DHT22;697;51.114;6.542;2022-07-29T01:00:07;22.60;48.00
1405;DHT22;697;51.114;6.542;2022-07-29T01:02:35;22.60;48.10
1405;DHT22;697;51.114;6.542;2022-07-29T01:05:02;22.50;48.10
1405;DHT22;697;51.114;6.542;2022-07-29T01:07:30;22.50;48.40
1405;DHT22;697;51.114;6.542;2022-07-29T01:09:59;22.50;48.50
1405;DHT22;697;51.114;6.542;2022-07-29T01:12:28;22.40;48.50
1405;DHT22;697;51.114;6.542;2022-07-29T01:14:58;22.40;48.70
1405;DHT22;697;51.114;6.542;2022-07-29T01:17:28;22.40;48.70
1405;DHT22;697;51.114;6.542;2022-07-29T01:20:02;22.30;48.80
1405;DHT22;697;51.114;6.542;2022-07-29T01:22:37;22.30;49.00
1405;DHT22;697;51.114;6.542;2022-07-29T01:25:28;22.30;49.10
1405;DHT22;697;51.114;6.542;2022-07-29T01:28:13;22.20;49.00
1405;DHT22;697;51.114;6.542;2022-07-29T01:30:44;22.20;49.10
1405;DHT22;697;51.114;6.542;2022-07-29T01:33:15;22.20;49.20
1405;DHT22;697;51.114;6.542;2022-07-29T01:35:59;22.20;49.40
1405;DHT22;697;51.114;6.542;2022-07-29T01:38:28;22.10;49.40
1405;DHT22;697;51.114;6.542;2022-07-29T01:41:03;22.10;49.50
1405;DHT22;697;51.114;6.542;2022-07-29T01:43:36;22.10;49.70
1405;DHT22;697;51.114;6.542;2022-07-29T01:46:11;22.00;50.40
1405;DHT22;697;51.114;6.542;2022-07-29T01:48:42;22.00;49.90
1405;DHT22;697;51.114;6.542;2022-07-29T01:51:19;22.00;50.20
1405;DHT22;697;51.114;6.542;2022-07-29T01:53:54;21.90;50.60
1405;DHT22;697;51.114;6.542;2022-07-29T01:56:23;21.80;50.90
1405;DHT22;697;51.114;6.542;2022-07-29T01:58:52;21.50;50.70
1405;DHT22;697;51.114;6.542;2022-07-29T02:01:21;21.20;51.50
1405;DHT22;697;51.114;6.542;2022-07-29T02:03:51;21.20;51.90
1405;DHT22;697;51.114;6.542;2022-07-29T02:06:21;21.10;51.60
1405;DHT22;697;51.114;6.542;2022-07-29T02:08:50;21.00;51.50
1405;DHT22;697;51.114;6.542;2022-07-29T02:11:19;21.00;51.50
1405;DHT22;697;51.114;6.542;2022-07-29T02:13:46;21.00;51.50
1405;DHT22;697;51.114;6.542;2022-07-29T02:16:15;21.00;51.10
1405;DHT22;697;51.114;6.542;2022-07-29T02:18:45;21.00;50.80
1405;DHT22;697;51.114;6.542;2022-07-29T02:21:21;21.00;50.90
1405;DHT22;697;51.114;6.542;2022-07-29T02:23:50;21.00;51.10
1405;DHT22;697;51.114;6.542;2022-07-29T02:26:20;21.00;51.20
1405;DHT22;697;51.114;6.542;2022-07-29T02:28:49;21.10;51.40
1405;DHT22;697;51.114;6.542;2022-07-29T02:31:18;21.10;51.20
1405;DHT22;697;51.114;6.542;2022-07-29T02:33:48;21.20;51.00
1405;DHT22;697;51.114;6.542;2022-07-29T02:36:16;21.10;50.80
1405;DHT22;697;51.114;6.542;2022-07-29T02:38:43;21.10;50.80
1405;DHT22;697;51.114;6.542;2022-07-29T02:41:26;21.10;51.10
1405;DHT22;697;51.114;6.542;2022-07-29T02:43:56;21.20;51.50
1405;DHT22;697;51.114;6.542;2022-07-29T02:46:29;21.10;51.50
1405;DHT22;697;51.114;6.542;2022-07-29T02:49:03;21.10;51.30
1405;DHT22;697;51.114;6.542;2022-07-29T02:51:40;21.10;51.10
1405;DHT22;697;51.114;6.542;2022-07-29T02:54:07;21.00;51.10
1405;DHT22;697;51.114;6.542;2022-07-29T02:56:36;20.90;51.30
1405;DHT22;697;51.114;6.542;2022-07-29T02:59:08;20.90;51.40
1405;DHT22;697;51.114;6.542;2022-07-29T03:01:39;20.80;51.70
1405;DHT22;697;51.114;6.542;2022-07-29T03:04:10;20.80;52.40
1405;DHT22;697;51.114;6.542;2022-07-29T03:06:38;20.90;53.70
1405;DHT22;697;51.114;6.542;2022-07-29T03:09:07;20.90;54.00
1405;DHT22;697;51.114;6.542;2022-07-29T03:11:35;21.00;54.40
1405;DHT22;697;51.114;6.542;2022-07-29T03:14:02;21.00;54.50
1405;DHT22;697;51.114;6.542;2022-07-29T03:16:30;21.00;55.30
1405;DHT22;697;51.114;6.542;2022-07-29T03:18:59;21.10;56.20
1405;DHT22;697;51.114;6.542;2022-07-29T03:21:28;21.00;55.90
1405;DHT22;697;51.114;6.542;2022-07-29T03:23:55;20.90;56.70
1405;DHT22;697;51.114;6.542;2022-07-29T03:26:22;20.70;57.40
1405;DHT22;697;51.114;6.542;2022-07-29T03:28:49;20.60;57.80
1405;DHT22;697;51.114;6.542;2022-07-29T03:31:16;20.60;58.70
1405;DHT22;697;51.114;6.542;2022-07-29T03:33:43;20.60;58.50
1405;DHT22;697;51.114;6.542;2022-07-29T03:36:09;20.60;58.90
1405;DHT22;697;51.114;6.542;2022-07-29T03:38:37;20.60;59.10
1405;DHT22;697;51.114;6.542;2022-07-29T03:41:09;20.60;59.60
1405;DHT22;697;51.114;6.542;2022-07-29T03:43:38;20.60;60.10
1405;DHT22;697;51.114;6.542;2022-07-29T03:46:07;20.50;60.50
1405;DHT22;697;51.114;6.542;2022-07-29T03:48:38;20.40;60.40
1405;DHT22;697;51.114;6.542;2022-07-29T03:51:06;20.20;60.50
1405;DHT22;697;51.114;6.542;2022-07-29T03:53:33;20.20;60.80
1405;DHT22;697;51.114;6.542;2022-07-29T03:56:02;20.30;61.10
1405;DHT22;697;51.114;6.542;2022-07-29T03:58:30;20.30;61.00
1405;DHT22;697;51.114;6.542;2022-07-29T04:00:58;20.30;61.50
1405;DHT22;697;51.114;6.542;2022-07-29T04:03:25;20.40;61.60
1405;DHT22;697;51.114;6.542;2022-07-29T04:06:03;20.40;62.00
1405;DHT22;697;51.114;6.542;2022-07-29T04:08:31;20.50;62.30
1405;DHT22;697;51.114;6.542;2022-07-29T04:10:58;20.50;62.30
1405;DHT22;697;51.114;6.542;2022-07-29T04:13:26;20.50;62.40
1405;DHT22;697;51.114;6.542;2022-07-29T04:15:53;20.50;62.60
1405;DHT22;697;51.114;6.542;2022-07-29T04:18:20;20.50;62.60
1405;DHT22;697;51.114;6.542;2022-07-29T04:20:47;20.50;62.30
1405;DHT22;697;51.114;6.542;2022-07-29T04:23:14;20.50;62.30
1405;DHT22;697;51.114;6.542;2022-07-29T04:25:41;20.50;62.20
1405;DHT22;697;51.114;6.542;2022-07-29T04:28:09;20.50;61.90
1405;DHT22;697;51.114;6.542;2022-07-29T04:30:38;20.50;61.90
1405;DHT22;697;51.114;6.542;2022-07-29T04:33:06;20.60;61.50
1405;DHT22;697;51.114;6.542;2022-07-29T04:35:35;20.60;61.60
1405;DHT22;697;51.114;6.542;2022-07-29T04:38:03;20.60;62.30
1405;DHT22;697;51.114;6.542;2022-07-29T04:40:30;20.60;62.00
1405;DHT22;697;51.114;6.542;2022-07-29T04:42:59;20.60;62.70
1405;DHT22;697;51.114;6.542;2022-07-29T04:45:25;20.60;63.20
1405;DHT22;697;51.114;6.542;2022-07-29T04:47:54;20.50;63.70
1405;DHT22;697;51.114;6.542;2022-07-29T04:50:21;20.50;64.60
1405;DHT22;697;51.114;6.542;2022-07-29T04:52:47;20.60;65.40
1405;DHT22;697;51.114;6.542;2022-07-29T04:55:14;20.60;65.60
1405;DHT22;697;51.114;6.542;2022-07-29T04:57:41;20.60;65.60
1405;DHT22;697;51.114;6.542;2022-07-29T05:00:09;20.50;65.30
1405;DHT22;697;51.114;6.542;2022-07-29T05:02:36;20.60;65.10
1405;DHT22;697;51.114;6.542;2022-07-29T05:05:04;20.60;65.00
1405;DHT22;697;51.114;6.542;2022-07-29T05:07:31;20.60;64.70
1405;DHT22;697;51.114;6.542;2022-07-29T05:09:58;20.60;63.80
1405;DHT22;697;51.114;6.542;2022-07-29T05:12:25;20.60;63.50
1405;DHT22;697;51.114;6.542;2022-07-29T05:14:53;20.60;63.80
1405;DHT22;697;51.114;6.542;2022-07-29T05:17:20;20.70;63.50
1405;DHT22;697;51.114;6.542;2022-07-29T05:19:47;20.70;63.50
1405;DHT22;697;51.114;6.542;2022-07-29T05:22:17;20.80;63.30
1405;DHT22;697;51.114;6.542;2022-07-29T05:24:44;20.80;64.10
1405;DHT22;697;51.114;6.542;2022-07-29T05:27:10;20.80;63.70
1405;DHT22;697;51.114;6.542;2022-07-29T05:29:37;20.90;64.20
1405;DHT22;697;51.114;6.542;2022-07-29T05:32:04;20.90;64.20
1405;DHT22;697;51.114;6.542;2022-07-29T05:34:31;21.00;63.90
1405;DHT22;697;51.114;6.542;2022-07-29T05:36:58;21.00;63.80
1405;DHT22;697;51.114;6.542;2022-07-29T05:39:26;21.00;63.40
1405;DHT22;697;51.114;6.542;2022-07-29T05:41:53;21.10;64.10
1405;DHT22;697;51.114;6.542;2022-07-29T05:44:20;21.10;64.10
1405;DHT22;697;51.114;6.542;2022-07-29T05:46:46;21.10;63.00
1405;DHT22;697;51.114;6.542;2022-07-29T05:49:13;21.10;62.80
1405;DHT22;697;51.114;6.542;2022-07-29T05:51:40;21.20;62.40
1405;DHT22;697;51.114;6.542;2022-07-29T05:54:07;21.20;62.80
1405;DHT22;697;51.114;6.542;2022-07-29T05:56:35;21.20;62.90
1405;DHT22;697;51.114;6.542;2022-07-29T05:59:02;21.20;62.40
1405;DHT22;697;51.114;6.542;2022-07-29T06:01:29;21.20;62.40
1405;DHT22;697;51.114;6.542;2022-07-29T06:03:56;21.20;62.00
1405;DHT22;697;51.114;6.542;2022-07-29T06:06:23;21.20;62.50
1405;DHT22;697;51.114;6.542;2022-07-29T06:08:50;21.30;63.50
1405;DHT22;697;51.114;6.542;2022-07-29T06:11:17;21.30;63.70
1405;DHT22;697;51.114;6.542;2022-07-29T06:13:45;21.30;62.30
1405;DHT22;697;51.114;6.542;2022-07-29T06:16:11;21.20;62.00
1405;DHT22;697;51.114;6.542;2022-07-29T06:18:38;21.20;62.10
1405;DHT22;697;51.114;6.542;2022-07-29T06:21:08;21.20;61.50
1405;DHT22;697;51.114;6.542;2022-07-29T06:23:35;21.20;61.80
1405;DHT22;697;51.114;6.542;2022-07-29T06:26:02;21.10;61.80
1405;DHT22;697;51.114;6.542;2022-07-29T06:28:29;21.10;62.80
1405;DHT22;697;51.114;6.542;2022-07-29T06:30:57;21.10;62.40
1405;DHT22;697;51.114;6.542;2022-07-29T06:33:24;21.10;62.10
1405;DHT22;697;51.114;6.542;2022-07-29T06:35:51;21.00;62.50
1405;DHT22;697;51.114;6.542;2022-07-29T06:38:17;21.00;63.30
1405;DHT22;697;51.114;6.542;2022-07-29T06:40:45;21.00;64.00
1405;DHT22;697;51.114;6.542;2022-07-29T06:43:28;20.90;63.80
1405;DHT22;697;51.114;6.542;2022-07-29T06:46:00;20.90;64.50
1405;DHT22;697;51.114;6.542;2022-07-29T06:48:27;21.00;66.80
1405;DHT22;697;51.114;6.542;2022-07-29T06:50:54;21.00;69.30
1405;DHT22;697;51.114;6.542;2022-07-29T06:53:20;21.00;70.50
1405;DHT22;697;51.114;6.542;2022-07-29T06:55:47;21.00;72.20
1405;DHT22;697;51.114;6.542;2022-07-29T06:58:14;21.00;73.00
1405;DHT22;697;51.114;6.542;2022-07-29T07:00:43;21.00;73.40
1405;DHT22;697;51.114;6.542;2022-07-29T07:03:11;21.00;74.00
1405;DHT22;697;51.114;6.542;2022-07-29T07:05:38;21.00;74.20
1405;DHT22;697;51.114;6.542;2022-07-29T07:08:05;21.00;74.50
1405;DHT22;697;51.114;6.542;2022-07-29T07:10:32;21.00;74.80
1405;DHT22;697;51.114;6.542;2022-07-29T07:12:59;21.10;74.90
1405;DHT22;697;51.114;6.542;2022-07-29T07:15:27;21.10;74.90
1405;DHT22;697;51.114;6.542;2022-07-29T07:17:54;21.20;73.90
1405;DHT22;697;51.114;6.542;2022-07-29T07:20:22;21.30;75.00
1405;DHT22;697;51.114;6.542;2022-07-29T07:22:48;21.40;74.50
1405;DHT22;697;51.114;6.542;2022-07-29T07:25:15;21.50;74.40
1405;DHT22;697;51.114;6.542;2022-07-29T07:27:42;21.60;74.70
1405;DHT22;697;51.114;6.542;2022-07-29T07:30:09;21.60;75.20
1405;DHT22;697;51.114;6.542;2022-07-29T07:32:36;21.70;74.70
1405;DHT22;697;51.114;6.542;2022-07-29T07:35:04;21.70;74.30
1405;DHT22;697;51.114;6.542;2022-07-29T07:37:33;21.70;73.70
1405;DHT22;697;51.114;6.542;2022-07-29T07:40:00;21.70;73.50
1405;DHT22;697;51.114;6.542;2022-07-29T07:42:27;21.70;73.40
1405;DHT22;697;51.114;6.542;2022-07-29T07:44:54;21.70;73.40
1405;DHT22;697;51.114;6.542;2022-07-29T07:47:20;21.60;73.00
1405;DHT22;697;51.114;6.542;2022-07-29T07:49:49;21.60;73.40
1405;DHT22;697;51.114;6.542;2022-07-29T07:52:17;21.60;73.30
1405;DHT22;697;51.114;6.542;2022-07-29T07:54:45;21.60;73.80
1405;DHT22;697;51.114;6.542;2022-07-29T07:57:12;21.50;74.70
1405;DHT22;697;51.114;6.542;2022-07-29T07:59:39;21.50;76.10
1405;DHT22;697;51.114;6.542;2022-07-29T08:02:07;21.50;77.00
1405;DHT22;697;51.114;6.542;2022-07-29T08:04:34;21.50;76.90
1405;DHT22;697;51.114;6.542;2022-07-29T08:07:01;21.40;76.70
1405;DHT22;697;51.114;6.542;2022-07-29T08:09:29;21.40;75.80
1405;DHT22;697;51.114;6.542;2022-07-29T08:11:58;21.40;76.40
1405;DHT22;697;51.114;6.542;2022-07-29T08:14:24;21.30;76.10
1405;DHT22;697;51.114;6.542;2022-07-29T08:16:51;21.30;76.60
1405;DHT22;697;51.114;6.542;2022-07-29T08:19:19;21.30;76.10
1405;DHT22;697;51.114;6.542;2022-07-29T08:21:46;21.40;76.90
1405;DHT22;697;51.114;6.542;2022-07-29T08:24:13;21.40;77.40
1405;DHT22;697;51.114;6.542;2022-07-29T08:26:58;21.50;77.90
1405;DHT22;697;51.114;6.542;2022-07-29T08:29:25;21.70;78.10
1405;DHT22;697;51.114;6.542;2022-07-29T08:31:52;21.80;78.60
1405;DHT22;697;51.114;6.542;2022-07-29T08:34:18;21.90;78.00
1405;DHT22;697;51.114;6.542;2022-07-29T08:36:45;22.00;77.40
1405;DHT22;697;51.114;6.542;2022-07-29T08:39:12;22.10;76.70
1405;DHT22;697;51.114;6.542;2022-07-29T08:41:39;22.20;76.90
1405;DHT22;697;51.114;6.542;2022-07-29T08:44:07;22.30;76.80
1405;DHT22;697;51.114;6.542;2022-07-29T08:46:37;22.50;76.00
1405;DHT22;697;51.114;6.542;2022-07-29T08:49:04;22.70;77.10
1405;DHT22;697;51.114;6.542;2022-07-29T08:51:32;22.90;76.50
1405;DHT22;697;51.114;6.542;2022-07-29T08:54:01;23.10;74.50
1405;DHT22;697;51.114;6.542;2022-07-29T08:56:28;23.20;72.80
1405;DHT22;697;51.114;6.542;2022-07-29T08:58:57;23.40;72.30
1405;DHT22;697;51.114;6.542;2022-07-29T09:01:27;23.60;70.50
1405;DHT22;697;51.114;6.542;2022-07-29T09:03:56;23.80;70.00
1405;DHT22;697;51.114;6.542;2022-07-29T09:06:23;23.80;68.30
1405;DHT22;697;51.114;6.542;2022-07-29T09:08:53;23.90;67.80
1405;DHT22;697;51.114;6.542;2022-07-29T09:11:21;24.10;68.00
1405;DHT22;697;51.114;6.542;2022-07-29T09:13:47;24.30;68.40
1405;DHT22;697;51.114;6.542;2022-07-29T09:16:15;24.60;68.00
1405;DHT22;697;51.114;6.542;2022-07-29T09:18:44;24.90;64.60
1405;DHT22;697;51.114;6.542;2022-07-29T09:21:13;25.20;61.50
1405;DHT22;697;51.114;6.542;2022-07-29T09:24:01;25.50;59.80
1405;DHT22;697;51.114;6.542;2022-07-29T09:26:29;26.00;58.80
1405;DHT22;697;51.114;6.542;2022-07-29T09:28:57;26.40;58.00
1405;DHT22;697;51.114;6.542;2022-07-29T09:31:32;26.70;54.70
1405;DHT22;697;51.114;6.542;2022-07-29T09:34:01;27.00;54.00
1405;DHT22;697;51.114;6.542;2022-07-29T09:36:28;27.10;53.40
1405;DHT22;697;51.114;6.542;2022-07-29T09:38:58;27.40;53.70
1405;DHT22;697;51.114;6.542;2022-07-29T09:41:26;27.60;52.90
1405;DHT22;697;51.114;6.542;2022-07-29T09:43:55;27.90;51.90
1405;DHT22;697;51.114;6.542;2022-07-29T09:46:21;28.30;50.50
1405;DHT22;697;51.114;6.542;2022-07-29T09:49:08;28.70;49.70
1405;DHT22;697;51.114;6.542;2022-07-29T09:51:35;29.20;49.20
1405;DHT22;697;51.114;6.542;2022-07-29T09:54:02;29.40;47.00
1405;DHT22;697;51.114;6.542;2022-07-29T09:56:47;29.50;45.80
1405;DHT22;697;51.114;6.542;2022-07-29T09:59:14;29.40;45.90
1405;DHT22;697;51.114;6.542;2022-07-29T10:01:41;29.30;45.90
1405;DHT22;697;51.114;6.542;2022-07-29T10:04:09;29.10;46.10
1405;DHT22;697;51.114;6.542;2022-07-29T10:06:55;28.80;45.80
1405;DHT22;697;51.114;6.542;2022-07-29T10:09:23;28.40;46.60
1405;DHT22;697;51.114;6.542;2022-07-29T10:12:03;28.10;47.20
1405;DHT22;697;51.114;6.542;2022-07-29T10:14:30;27.80;48.00
1405;DHT22;697;51.114;6.542;2022-07-29T10:16:58;27.70;48.20
1405;DHT22;697;51.114;6.542;2022-07-29T10:19:28;27.50;48.20
1405;DHT22;697;51.114;6.542;2022-07-29T10:21:56;27.40;48.50
1405;DHT22;697;51.114;6.542;2022-07-29T10:24:24;27.20;49.40
1405;DHT22;697;51.114;6.542;2022-07-29T10:26:51;27.10;50.10
1405;DHT22;697;51.114;6.542;2022-07-29T10:29:19;26.90;50.20
1405;DHT22;697;51.114;6.542;2022-07-29T10:31:55;26.80;49.90
1405;DHT22;697;51.114;6.542;2022-07-29T10:34:36;26.60;50.40
1405;DHT22;697;51.114;6.542;2022-07-29T10:37:20;26.70;51.40
1405;DHT22;697;51.114;6.542;2022-07-29T10:39:55;26.70;51.00
1405;DHT22;697;51.114;6.542;2022-07-29T10:42:25;26.80;50.00
1405;DHT22;697;51.114;6.542;2022-07-29T10:44:55;27.00;50.40
1405;DHT22;697;51.114;6.542;2022-07-29T10:47:22;27.20;50.40
1405;DHT22;697;51.114;6.542;2022-07-29T10:50:02;27.50;48.80
1405;DHT22;697;51.114;6.542;2022-07-29T10:52:54;27.80;47.70
1405;DHT22;697;51.114;6.542;2022-07-29T10:55:34;28.20;48.10
1405;DHT22;697;51.114;6.542;2022-07-29T10:58:14;28.40;46.70
1405;DHT22;697;51.114;6.542;2022-07-29T11:00:41;28.60;45.20
1405;DHT22;697;51.114;6.542;2022-07-29T11:03:09;28.90;45.50
1405;DHT22;697;51.114;6.542;2022-07-29T11:05:54;29.80;43.90
1405;DHT22;697;51.114;6.542;2022-07-29T11:08:23;30.70;42.50
1405;DHT22;697;51.114;6.542;2022-07-29T11:10:53;31.30;39.80
1405;DHT22;697;51.114;6.542;2022-07-29T11:13:46;31.90;39.10
1405;DHT22;697;51.114;6.542;2022-07-29T11:16:14;32.50;37.40
1405;DHT22;697;51.114;6.542;2022-07-29T11:19:23;32.90;36.90
1405;DHT22;697;51.114;6.542;2022-07-29T11:21:51;33.10;35.40
1405;DHT22;697;51.114;6.542;2022-07-29T11:24:20;33.20;36.00
1405;DHT22;697;51.114;6.542;2022-07-29T11:27:07;33.30;36.30
1405;DHT22;697;51.114;6.542;2022-07-29T11:29:37;33.30;34.70
1405;DHT22;697;51.114;6.542;2022-07-29T11:32:09;33.20;35.50
1405;DHT22;697;51.114;6.542;2022-07-29T11:34:36;32.90;35.70
1405;DHT22;697;51.114;6.542;2022-07-29T11:37:20;32.80;36.20
1405;DHT22;697;51.114;6.542;2022-07-29T11:40:09;32.70;36.70
1405;DHT22;697;51.114;6.542;2022-07-29T11:42:41;33.20;36.30
1405;DHT22;697;51.114;6.542;2022-07-29T11:45:10;33.80;35.20
1405;DHT22;697;51.114;6.542;2022-07-29T11:47:41;34.10;33.70
1405;DHT22;697;51.114;6.542;2022-07-29T11:50:12;34.20;33.20
1405;DHT22;697;51.114;6.542;2022-07-29T11:52:42;34.40;33.50
1405;DHT22;697;51.114;6.542;2022-07-29T11:55:14;34.60;32.50
1405;DHT22;697;51.114;6.542;2022-07-29T11:57:48;35.20;32.00
1405;DHT22;697;51.114;6.542;2022-07-29T12:00:27;35.90;29.90
1405;DHT22;697;51.114;6.542;2022-07-29T12:02:55;36.00;29.30
1405;DHT22;697;51.114;6.542;2022-07-29T12:05:31;35.70;29.10
1405;DHT22;697;51.114;6.542;2022-07-29T12:08:06;35.60;30.00
1405;DHT22;697;51.114;6.542;2022-07-29T12:10:33;36.10;29.70
1405;DHT22;697;51.114;6.542;2022-07-29T12:13:00;36.50;28.30
1405;DHT22;697;51.114;6.542;2022-07-29T12:15:27;37.00;28.20
1405;DHT22;697;51.114;6.542;2022-07-29T12:17:54;37.50;27.80
1405;DHT22;697;51.114;6.542;2022-07-29T12:20:25;38.10;27.40
1405;DHT22;697;51.114;6.542;2022-07-29T12:22:52;38.70;26.60
1405;DHT22;697;51.114;6.542;2022-07-29T12:25:22;38.60;25.60
1405;DHT22;697;51.114;6.542;2022-07-29T12:27:59;38.30;26.40
1405;DHT22;697;51.114;6.542;2022-07-29T12:30:36;38.10;26.70
1405;DHT22;697;51.114;6.542;2022-07-29T12:33:12;38.10;26.00
1405;DHT22;697;51.114;6.542;2022-07-29T12:35:39;38.70;26.30
1405;DHT22;697;51.114;6.542;2022-07-29T12:38:06;39.60;25.30
1405;DHT22;697;51.114;6.542;2022-07-29T12:40:34;40.40;24.30
1405;DHT22;697;51.114;6.542;2022-07-29T12:43:10;40.80;23.40
1405;DHT22;697;51.114;6.542;2022-07-29T12:45:38;41.40;23.00
1405;DHT22;697;51.114;6.542;2022-07-29T12:48:06;41.70;22.60
1405;DHT22;697;51.114;6.542;2022-07-29T12:50:34;41.90;22.10
1405;DHT22;697;51.114;6.542;2022-07-29T12:53:11;42.00;22.30
1405;DHT22;697;51.114;6.542;2022-07-29T12:55:42;42.50;22.00
1405;DHT22;697;51.114;6.542;2022-07-29T12:58:08;42.90;21.60
1405;DHT22;697;51.114;6.542;2022-07-29T13:00:35;43.30;20.80
1405;DHT22;697;51.114;6.542;2022-07-29T13:03:02;43.50;20.60
1405;DHT22;697;51.114;6.542;2022-07-29T13:05:39;43.80;20.10
1405;DHT22;697;51.114;6.542;2022-07-29T13:08:11;44.20;20.30
1405;DHT22;697;51.114;6.542;2022-07-29T13:10:39;44.60;19.00
1405;DHT22;697;51.114;6.542;2022-07-29T13:13:08;45.00;19.10
1405;DHT22;697;51.114;6.542;2022-07-29T13:15:36;45.40;18.70
1405;DHT22;697;51.114;6.542;2022-07-29T13:18:03;45.60;18.60
1405;DHT22;697;51.114;6.542;2022-07-29T13:20:30;45.60;18.60
1405;DHT22;697;51.114;6.542;2022-07-29T13:22:58;45.80;18.00
1405;DHT22;697;51.114;6.542;2022-07-29T13:25:26;45.80;18.00
1405;DHT22;697;51.114;6.542;2022-07-29T13:27:55;45.90;18.60
1405;DHT22;697;51.114;6.542;2022-07-29T13:30:23;46.10;17.80
1405;DHT22;697;51.114;6.542;2022-07-29T13:32:50;46.10;17.70
1405;DHT22;697;51.114;6.542;2022-07-29T13:35:17;45.90;17.70
1405;DHT22;697;51.114;6.542;2022-07-29T13:37:45;45.50;17.60
1405;DHT22;697;51.114;6.542;2022-07-29T13:40:13;45.00;18.30
1405;DHT22;697;51.114;6.542;2022-07-29T13:42:40;44.90;18.50
1405;DHT22;697;51.114;6.542;2022-07-29T13:45:10;45.10;18.60
1405;DHT22;697;51.114;6.542;2022-07-29T13:47:37;45.60;18.20
1405;DHT22;697;51.114;6.542;2022-07-29T13:50:06;45.90;16.90
1405;DHT22;697;51.114;6.542;2022-07-29T13:52:36;46.00;17.90
1405;DHT22;697;51.114;6.542;2022-07-29T13:55:04;46.10;17.30
1405;DHT22;697;51.114;6.542;2022-07-29T13:57:30;46.10;17.80
1405;DHT22;697;51.114;6.542;2022-07-29T13:59:58;45.80;17.00
1405;DHT22;697;51.114;6.542;2022-07-29T14:02:26;45.30;17.90
1405;DHT22;697;51.114;6.542;2022-07-29T14:04:53;44.70;18.10
1405;DHT22;697;51.114;6.542;2022-07-29T14:07:21;44.10;18.40
1405;DHT22;697;51.114;6.542;2022-07-29T14:09:48;43.80;18.60
1405;DHT22;697;51.114;6.542;2022-07-29T14:12:15;43.80;18.80
1405;DHT22;697;51.114;6.542;2022-07-29T14:14:42;44.10;18.80
1405;DHT22;697;51.114;6.542;2022-07-29T14:17:09;44.20;18.00
1405;DHT22;697;51.114;6.542;2022-07-29T14:19:37;44.40;18.30
1405;DHT22;697;51.114;6.542;2022-07-29T14:22:05;44.40;18.40
1405;DHT22;697;51.114;6.542;2022-07-29T14:24:31;44.50;17.90
1405;DHT22;697;51.114;6.542;2022-07-29T14:26:59;44.80;18.10
1405;DHT22;697;51.114;6.542;2022-07-29T14:29:26;44.80;17.40
1405;DHT22;697;51.114;6.542;2022-07-29T14:31:53;45.00;17.40
1405;DHT22;697;51.114;6.542;2022-07-29T14:34:19;45.00;17.80
1405;DHT22;697;51.114;6.542;2022-07-29T14:36:47;45.20;17.80
1405;DHT22;697;51.114;6.542;2022-07-29T14:39:14;45.20;16.90
1405;DHT22;697;51.114;6.542;2022-07-29T14:41:42;45.00;17.80
1405;DHT22;697;51.114;6.542;2022-07-29T14:44:09;45.10;17.80
1405;DHT22;697;51.114;6.542;2022-07-29T14:46:36;45.30;16.60
1405;DHT22;697;51.114;6.542;2022-07-29T14:49:02;45.40;16.30
1405;DHT22;697;51.114;6.542;2022-07-29T14:51:29;45.40;15.70
1405;DHT22;697;51.114;6.542;2022-07-29T14:53:58;45.20;16.50
1405;DHT22;697;51.114;6.542;2022-07-29T14:56:25;45.30;16.70
1405;DHT22;697;51.114;6.542;2022-07-29T14:58:52;45.30;16.30
1405;DHT22;697;51.114;6.542;2022-07-29T15:01:19;44.50;16.30
1405;DHT22;697;51.114;6.542;2022-07-29T15:03:45;43.40;17.30
1405;DHT22;697;51.114;6.542;2022-07-29T15:06:12;42.70;18.60
1405;DHT22;697;51.114;6.542;2022-07-29T15:08:39;42.20;19.90
1405;DHT22;697;51.114;6.542;2022-07-29T15:11:07;42.20;19.90
1405;DHT22;697;51.114;6.542;2022-07-29T15:13:34;42.80;20.10
1405;DHT22;697;51.114;6.542;2022-07-29T15:16:00;43.40;19.50
1405;DHT22;697;51.114;6.542;2022-07-29T15:18:27;44.00;18.30
1405;DHT22;697;51.114;6.542;2022-07-29T15:20:54;44.40;17.70
1405;DHT22;697;51.114;6.542;2022-07-29T15:23:21;44.40;18.00
1405;DHT22;697;51.114;6.542;2022-07-29T15:25:47;44.60;18.10
1405;DHT22;697;51.114;6.542;2022-07-29T15:28:15;44.80;18.00
1405;DHT22;697;51.114;6.542;2022-07-29T15:30:42;44.80;17.90
1405;DHT22;697;51.114;6.542;2022-07-29T15:33:09;44.60;18.10
1405;DHT22;697;51.114;6.542;2022-07-29T15:35:36;44.30;18.70
1405;DHT22;697;51.114;6.542;2022-07-29T15:38:03;43.60;18.80
1405;DHT22;697;51.114;6.542;2022-07-29T15:40:30;43.00;19.60
1405;DHT22;697;51.114;6.542;2022-07-29T15:42:57;42.60;20.20
1405;DHT22;697;51.114;6.542;2022-07-29T15:45:27;42.20;20.40
1405;DHT22;697;51.114;6.542;2022-07-29T15:47:54;41.60;21.20
1405;DHT22;697;51.114;6.542;2022-07-29T15:50:20;40.90;21.60
1405;DHT22;697;51.114;6.542;2022-07-29T15:52:47;40.40;22.60
1405;DHT22;697;51.114;6.542;2022-07-29T15:55:14;39.90;23.20
1405;DHT22;697;51.114;6.542;2022-07-29T15:57:41;39.50;23.60
1405;DHT22;697;51.114;6.542;2022-07-29T16:00:08;39.00;23.90
1405;DHT22;697;51.114;6.542;2022-07-29T16:02:40;38.30;24.70
1405;DHT22;697;51.114;6.542;2022-07-29T16:05:07;38.00;25.10
1405;DHT22;697;51.114;6.542;2022-07-29T16:07:34;37.60;25.00
1405;DHT22;697;51.114;6.542;2022-07-29T16:10:01;37.20;25.60
1405;DHT22;697;51.114;6.542;2022-07-29T16:12:27;36.80;26.00
1405;DHT22;697;51.114;6.542;2022-07-29T16:14:54;36.80;26.40
1405;DHT22;697;51.114;6.542;2022-07-29T16:17:21;37.00;26.40
1405;DHT22;697;51.114;6.542;2022-07-29T16:19:49;37.30;25.80
1405;DHT22;697;51.114;6.542;2022-07-29T16:22:16;37.60;25.80
1405;DHT22;697;51.114;6.542;2022-07-29T16:24:42;38.30;25.90
1405;DHT22;697;51.114;6.542;2022-07-29T16:27:09;38.80;25.00
1405;DHT22;697;51.114;6.542;2022-07-29T16:29:36;39.20;24.30